Flight Track Log - Related Links

Times and Time Zones

All times are in EDT time to prevent confusion due to time zone crossing. See the EJA328 flight status page for this flight to view local times or setup timezone preferences in your user account.

Time Position Orientation Groundspeed Altitude Reporting Facility
EDT Latitude Longitude Course Direction KTS MPH feet Rate Location/Type
Fri 04:03:30 PM 30.1764 -97.6568 172° South 159 183 1,800  Level FlightAware ADS-B
Fri 04:03:46 PM 30.1640 -97.6548 173° South 185 213 2,500 3,038 Climbing FlightAware ADS-B
Fri 04:04:49 PM 30.1183 -97.6854 269° West 242 278 5,800 2,750 Climbing FlightAware ADS-B
Fri 04:04:58 PM 30.1204 -97.6982 285° West 257 296 5,800  Level FlightAware ADS-B
Fri 04:05:02 PM 30.1223 -97.7032 294° West 259 298 5,800 750 Level FlightAware ADS-B
Fri 04:05:06 PM 30.1247 -97.7079 302° West 261 300 5,900 1,091 Climbing FlightAware ADS-B
Fri 04:05:13 PM 30.1301 -97.7164 307° West 261 300 6,000 375 Climbing FlightAware ADS-B
Fri 04:05:22 PM 30.1365 -97.7258 308° West 262 302 6,000  Level FlightAware ADS-B
Fri 04:05:37 PM 30.1481 -97.7424 309° West 261 300 6,000  Level FlightAware ADS-B
Fri 04:05:53 PM 30.1596 -97.7591 308° West 266 306 6,000  Level FlightAware ADS-B
Fri 04:06:03 PM 30.1678 -97.7712 308° West 270 311 6,000 1,200 Level FlightAware ADS-B
Fri 04:06:18 PM 30.1790 -97.7889 305° West 269 310 6,500 2,800 Climbing FlightAware ADS-B
Fri 04:06:33 PM 30.1895 -97.8062 305° West 260 299 7,400 3,484 Climbing FlightAware ADS-B
Fri 04:06:49 PM 30.2003 -97.8237 305° West 257 296 8,300 3,484 Climbing FlightAware ADS-B
Fri 04:07:04 PM 30.2108 -97.8407 306° West 258 297 9,200 3,400 Climbing FlightAware ADS-B
Fri 04:07:19 PM 30.2213 -97.8576 306° West 259 298 10,000 3,130 Climbing FlightAware ADS-B
Fri 04:07:50 PM 30.2431 -97.8925 306° West 266 306 11,600 2,262 Climbing FlightAware ADS-B
Fri 04:08:20 PM 30.2668 -97.9306 306° West 300 345 12,300 1,714 Climbing FlightAware ADS-B
Fri 04:08:25 PM 30.2708 -97.9370 306° West 300 345 12,600 3,600 Climbing FlightAware ADS-B (KGTU)
Fri 04:08:50 PM 30.2912 -97.9695 306° West 292 336 14,100 3,474 Climbing FlightAware ADS-B
Fri 04:09:03 PM 30.3008 -97.9850 305° West 284 327 14,800 3,484 Climbing FlightAware ADS-B (KGTU)
Fri 04:09:21 PM 30.3149 -98.0075 306° West 283 326 15,900 3,600 Climbing FlightAware ADS-B
Fri 04:09:33 PM 30.3241 -98.0222 306° West 280 322 16,600 3,290 Climbing FlightAware ADS-B (KGTU)
Fri 04:09:52 PM 30.3384 -98.0450 306° West 274 315 17,600 3,333 Climbing FlightAware ADS-B
Fri 04:10:00 PM 30.3445 -98.0551 304° West 271 312 18,100 3,750 Climbing FlightAware ADS-B
Fri 04:10:08 PM 30.3485 -98.0643 294° West 264 304 18,600 3,429 Climbing FlightAware ADS-B
Fri 04:10:14 PM 30.3511 -98.0730 288° West 258 297 18,900 3,500 Climbing FlightAware ADS-B
Fri 04:10:44 PM 30.3627 -98.1113 290° West 245 282 20,700 3,385 Climbing FlightAware ADS-B
Fri 04:10:53 PM 30.3658 -98.1212 290° West 239 275 21,100 2,800 Climbing FlightAware ADS-B (KGTU)
Fri 04:11:14 PM 30.3740 -98.1475 290° West 236 272 22,100 2,800 Climbing FlightAware ADS-B
Fri 04:11:23 PM 30.3770 -98.1571 288° West 230 265 22,500 1,742 Climbing FlightAware ADS-B (KGTU)
Fri 04:11:45 PM 30.3853 -98.1841 289° West 246 283 23,000 840 Climbing FlightAware ADS-B
Fri 04:12:13 PM 30.3963 -98.2201 290° West 272 313 23,200 581 Climbing FlightAware ADS-B (KHOU)
Fri 04:12:16 PM 30.3978 -98.2252 289° West 270 311 23,300 2,000 Climbing FlightAware ADS-B
Fri 04:12:43 PM 30.4090 -98.2615 290° West 237 273 24,200 2,000 Climbing FlightAware ADS-B (KGTU)
Fri 04:12:46 PM 30.4103 -98.2657 290° West 269 310 24,300 1,714 Climbing FlightAware ADS-B
Fri 04:13:18 PM 30.4238 -98.3095 289° West 273 314 25,200 1,636 Climbing FlightAware ADS-B
Fri 04:13:52 PM 30.4382 -98.3566 289° West 278 320 26,100 1,636 Climbing FlightAware ADS-B
Fri 04:14:24 PM 30.4524 -98.4031 289° West 282 325 27,000 1,662 Climbing FlightAware ADS-B
Fri 04:14:57 PM 30.4668 -98.4501 289° West 284 327 27,900 1,373 Climbing FlightAware ADS-B
Fri 04:17:10 PM 30.5283 -98.6523 289° West 312 359 30,800 1,337 Climbing FlightAware ADS-B
Fri 04:18:01 PM 30.5528 -98.7332 289° West 312 359 32,000 1,341 Climbing FlightAware ADS-B
Fri 04:18:35 PM 30.5690 -98.7867 289° West 316 364 32,700 1,250 Climbing FlightAware ADS-B
Fri 04:19:37 PM 30.5969 -98.8806 289° West 315 362 34,000 624 Climbing Houston Center
Fri 04:20:40 PM 30.6253 -98.9819 288° West 322 371 34,000  Level Houston Center
Fri 04:21:42 PM 30.6592 -99.0933 290° West 350 403 34,000  Level Houston Center
Fri 04:22:44 PM 30.6944 -99.2033 290° West 365 420 34,000 290 Level Houston Center
Fri 04:23:46 PM 30.7272 -99.3147 289° West 366 421 34,600 968 Climbing Houston Center
Fri 04:24:48 PM 30.7764 -99.4108 301° West 353 406 36,000 1,776 Climbing Houston Center
Fri 04:25:51 PM 30.8433 -99.5153 307° West 338 389 38,300 1,584 Climbing Houston Center
Fri 04:26:53 PM 30.8942 -99.5969 306° West 318 366 39,300 823 Climbing Houston Center
Fri 04:27:55 PM 30.9447 -99.6769 306° West 313 360 40,000 339 Climbing Houston Center
Fri 04:28:57 PM 30.9981 -99.7611 306° West 321 369 40,000  Level Houston Center
Fri 04:29:59 PM 31.0531 -99.8503 306° West 337 388 40,000  Level Houston Center
Fri 04:31:02 PM 31.1228 -99.9614 306° West 350 403 40,000  Level Houston Center
Fri 04:32:04 PM 31.1806 -100.0531 306° West 351 404 40,000  Level Houston Center
Fri 04:33:06 PM 31.2372 -100.1447 306° West 352 405 40,000  Level Houston Center
Fri 04:34:08 PM 31.2950 -100.2358 307° West 351 404 40,000  Level Houston Center
Fri 04:35:10 PM 31.3519 -100.3286 306° West 351 404 40,000  Level Houston Center
Fri 04:36:12 PM 31.4200 -100.4397 306° West 351 404 40,000  Level Houston Center
Fri 04:37:15 PM 31.4772 -100.5308 306° West 351 404 40,000  Level Houston Center
Fri 04:38:17 PM 31.5339 -100.6247 305° West 351 404 40,000  Level Houston Center
Fri 04:39:19 PM 31.5919 -100.7139 307° West 350 403 40,000  Level Houston Center
Fri 04:40:21 PM 31.6453 -100.8072 304° West 349 402 40,000  Level Houston Center
Fri 04:41:23 PM 31.7153 -100.9189 306° West 351 404 40,000  Level Houston Center
Fri 04:42:26 PM 31.7706 -101.0114 305° West 350 403 40,000  Level Houston Center
Fri 04:43:28 PM 31.8278 -101.1053 306° West 351 404 40,000  Level Houston Center
Fri 04:44:30 PM 31.8844 -101.1992 305° West 351 404 40,000  Level Houston Center
Fri 04:45:32 PM 31.9422 -101.2917 306° West 351 404 40,000  Level Houston Center
Fri 04:46:34 PM 32.0092 -101.4056 305° West 351 404 40,000  Level Houston Center
Fri 04:47:43 PM 32.0681 -101.5003 306° West 354 407 40,000  Level Fort Worth Center
Fri 04:48:45 PM 32.1250 -101.5947 305° West 354 407 40,000  Level Fort Worth Center
Fri 04:49:47 PM 32.1889 -101.7039 305° West 354 407 40,000  Level Fort Worth Center
Fri 04:50:49 PM 32.2453 -101.7989 305° West 354 407 40,000  Level Fort Worth Center
Fri 04:51:51 PM 32.3014 -101.8933 305° West 354 407 40,000  Level Fort Worth Center
Fri 04:52:53 PM 32.3581 -101.9878 305° West 353 406 40,000  Level Fort Worth Center
Fri 04:53:55 PM 32.4247 -102.1000 305° West 352 405 40,000  Level Fort Worth Center
Fri 04:54:58 PM 32.4797 -102.1933 305° West 347 399 40,000  Level Fort Worth Center
Fri 04:56:00 PM 32.5369 -102.2917 305° West 347 399 40,000  Level Fort Worth Center
Fri 04:57:02 PM 32.5917 -102.3858 305° West 348 400 40,000  Level Fort Worth Center
Fri 04:58:04 PM 32.6469 -102.4794 305° West 347 399 40,000  Level Fort Worth Center
Fri 04:59:06 PM 32.7089 -102.5814 306° West 350 403 40,000  Level Fort Worth Center
Fri 05:00:08 PM 32.7644 -102.6769 305° West 351 404 40,000  Level Fort Worth Center
Fri 05:01:10 PM 32.8189 -102.7717 304° West 350 403 40,000  Level Fort Worth Center
Fri 05:02:12 PM 32.8736 -102.8669 304° West 350 403 40,000  Level Fort Worth Center
Fri 05:03:14 PM 32.9292 -102.9631 305° West 351 404 40,000  Level Fort Worth Center
Fri 05:04:16 PM 32.9956 -103.0783 304° West 352 405 40,000  Level Fort Worth Center
Fri 05:05:25 PM 33.0625 -103.1953 304° West 353 406 40,000  Level Albuquerque Center
Fri 05:06:27 PM 33.1172 -103.2903 305° West 353 406 40,000  Level Albuquerque Center
Fri 05:07:29 PM 33.1717 -103.3875 304° West 352 405 40,000  Level Albuquerque Center
Fri 05:08:31 PM 33.2264 -103.4828 304° West 352 405 40,000  Level Albuquerque Center
Fri 05:09:34 PM 33.2811 -103.5786 304° West 351 404 40,000  Level Albuquerque Center
Fri 05:10:36 PM 33.3336 -103.6753 303° West 350 403 40,000  Level Albuquerque Center
Fri 05:11:38 PM 33.4047 -103.7892 307° West 351 404 40,000  Level Albuquerque Center
Fri 05:12:40 PM 33.4575 -103.8858 303° West 350 403 40,000  Level Albuquerque Center
Fri 05:13:42 PM 33.5167 -103.9900 304° West 351 404 40,000  Level Albuquerque Center
Fri 05:14:44 PM 33.5700 -104.0867 304° West 350 403 40,000  Level Albuquerque Center
Fri 05:15:46 PM 33.6286 -104.1914 304° West 350 403 40,000  Level Albuquerque Center
Fri 05:16:48 PM 33.6833 -104.2903 304° West 353 406 40,000  Level Albuquerque Center
Fri 05:17:50 PM 33.7428 -104.3961 304° West 354 407 40,000  Level Albuquerque Center
Fri 05:18:52 PM 33.7969 -104.4956 303° West 355 409 40,000  Level Albuquerque Center
Fri 05:19:55 PM 33.8558 -104.6025 304° West 355 409 40,000  Level Albuquerque Center
Fri 05:20:57 PM 33.9097 -104.7031 303° West 356 410 40,000 484 Level Albuquerque Center
Fri 05:21:59 PM 33.9678 -104.8053 304° West 352 405 41,000 484 Climbing Albuquerque Center
Fri 05:23:01 PM 34.0208 -104.9000 304° West 351 404 41,000  Level Albuquerque Center
Fri 05:24:03 PM 34.0769 -105.0019 304° West 355 409 41,000  Level Albuquerque Center
Fri 05:25:05 PM 34.1333 -105.1042 304° West 361 415 41,000  Level Albuquerque Center
Fri 05:26:07 PM 34.1892 -105.2083 303° West 361 415 41,000  Level Albuquerque Center
Fri 05:27:09 PM 34.2444 -105.3094 303° West 361 415 41,000  Level Albuquerque Center
Fri 05:28:11 PM 34.3100 -105.4303 303° West 361 415 41,000  Level Albuquerque Center
Fri 05:33:51 PM 34.6222 -106.0141 303° West 365 420 41,000  Level FlightAware ADS-B
Fri 05:34:48 PM 34.6750 -106.1136 303° West 366 421 41,000 -222 Level FlightAware ADS-B
Fri 05:35:39 PM 34.7206 -106.1999 303° West 381 438 40,600 -484 Descending FlightAware ADS-B
Fri 05:36:52 PM 34.7922 -106.3354 303° West 386 444 40,000 -261 Descending FlightAware ADS-B
Fri 05:37:57 PM 34.8546 -106.4537 303° West 381 438 40,000  Level FlightAware ADS-B
Fri 05:38:44 PM 34.8985 -106.5376 302° West 378 435 40,000  Level FlightAware ADS-B (KAEG)
Fri 05:39:20 PM 34.9329 -106.6032 303° West 375 432 40,000  Level FlightAware ADS-B (KAEG)
Fri 05:40:04 PM 34.9736 -106.6811 302° West 372 428 40,000  Level FlightAware ADS-B (KAEG)
Fri 05:40:44 PM 35.0019 -106.7545 285° West 355 409 40,000  Level FlightAware ADS-B (KAEG)
Fri 05:41:25 PM 35.0125 -106.8326 278° West 350 403 40,000  Level FlightAware ADS-B (KAEG)
Fri 05:42:06 PM 35.0224 -106.9133 278° West 350 403 40,000  Level FlightAware ADS-B (KAEG)
Fri 05:42:45 PM 35.0311 -106.9848 278° West 350 403 40,000  Level FlightAware ADS-B (KAEG)
Fri 05:43:24 PM 35.0408 -107.0667 278° West 349 402 40,000  Level FlightAware ADS-B (KAEG)
Fri 05:44:23 PM 35.0542 -107.1811 278° West 350 403 40,000  Level FlightAware ADS-B (KAEG)
Fri 05:45:08 PM 35.0646 -107.2706 278° West 351 404 40,000  Level FlightAware ADS-B
Fri 05:46:13 PM 35.0793 -107.3976 278° West 355 409 40,000  Level FlightAware ADS-B
Fri 05:47:13 PM 35.0925 -107.5135 278° West 359 413 40,000  Level FlightAware ADS-B
Fri 05:48:16 PM 35.1072 -107.6433 278° West 358 412 40,000  Level FlightAware ADS-B
Fri 05:50:23 PM 35.1356 -107.8981 278° West 358 412 40,000  Level FlightAware ADS-B
Fri 05:51:25 PM 35.1494 -108.0226 278° West 359 413 40,000  Level FlightAware ADS-B
Fri 05:52:26 PM 35.1628 -108.1463 278° West 361 415 40,000  Level FlightAware ADS-B
Fri 05:53:28 PM 35.1763 -108.2709 277° West 363 418 40,000  Level FlightAware ADS-B
Fri 05:55:32 PM 35.2031 -108.5224 277° West 361 415 40,000  Level FlightAware ADS-B
Fri 05:56:35 PM 35.2166 -108.6514 277° West 361 415 40,000  Level FlightAware ADS-B
Fri 05:59:43 PM 35.2554 -109.0300 277° West 364 419 40,000  Level FlightAware ADS-B
Fri 06:00:42 PM 35.2672 -109.1473 277° West 363 418 40,000  Level FlightAware ADS-B
Fri 06:02:49 PM 35.2927 -109.4062 277° West 364 419 40,000  Level FlightAware ADS-B
Fri 06:04:54 PM 35.3180 -109.6676 277° West 367 422 40,000  Level FlightAware ADS-B
Fri 06:06:01 PM 35.3311 -109.8050 277° West 366 421 40,000  Level FlightAware ADS-B
Fri 06:08:14 PM 35.3565 -110.0781 276° West 366 421 40,000  Level FlightAware ADS-B
Fri 06:10:23 PM 35.3806 -110.3429 276° West 365 420 40,000  Level FlightAware ADS-B
Fri 06:11:12 PM 35.3858 -110.4286 276° West 365 420 40,000 -857 Level Los Angeles Center
Fri 06:12:15 PM 35.3972 -110.5528 276° West 366 421 38,400 -1,728 Descending Los Angeles Center
Fri 06:13:17 PM 35.4086 -110.6800 276° West 374 430 36,400 -2,129 Descending Los Angeles Center
Fri 06:14:19 PM 35.4211 -110.8286 276° West 370 426 34,000 -1,984 Descending Los Angeles Center
Fri 06:15:21 PM 35.4314 -110.9519 276° West 368 423 32,300 -1,645 Descending Los Angeles Center
Fri 06:16:23 PM 35.4419 -111.0750 276° West 366 421 30,600 -426 Descending Los Angeles Center
Fri 06:20:45 PM 35.4908 -111.6516 276° West 386 444 30,000 -116 Descending FlightAware ADS-B
Fri 06:21:34 PM 35.4969 -111.7436 276° West 387 445 30,000  Level Los Angeles Center
Fri 06:27:43 PM 35.5606 -112.5843 275° West 398 458 30,000  Level FlightAware ADS-B
Fri 06:28:41 PM 35.5697 -112.7129 275° West 398 458 30,000  Level FlightAware ADS-B
Fri 06:29:15 PM 35.5742 -112.7806 275° West 397 457 30,000  Level Albuquerque Center
Fri 06:29:51 PM 35.5800 -112.8669 275° West 400 460 30,000 -429 Level Los Angeles Center
Fri 06:30:53 PM 35.5872 -112.9842 274° West 400 460 29,300 -1,597 Descending Los Angeles Center
Fri 06:31:55 PM 35.5983 -113.1464 275° West 399 459 26,700 -2,274 Descending Los Angeles Center
Fri 06:32:57 PM 35.6078 -113.2856 275° West 404 465 24,600 -2,129 Descending Los Angeles Center
Fri 06:33:59 PM 35.6172 -113.4294 275° West 408 470 22,300 -1,968 Descending Los Angeles Center
Fri 06:35:02 PM 35.6261 -113.5600 275° West 390 449 20,500 -864 Descending Los Angeles Center
Fri 06:36:04 PM 35.6442 -113.6850 280° West 376 433 20,500 -48 Level Los Angeles Center
Fri 06:37:06 PM 35.6625 -113.8086 280° West 369 425 20,400 -1,016 Descending Los Angeles Center
Fri 06:38:08 PM 35.6803 -113.9361 280° West 376 433 18,400 -2,081 Descending Los Angeles Center
Fri 06:39:10 PM 35.7014 -114.0917 280° West 382 440 16,100 -1,950 Descending Los Angeles Center
Fri 06:39:28 PM 35.7056 -114.1150 282° West 381 438 15,800 -1,770 Descending Los Angeles Center
Fri 06:40:11 PM 35.7211 -114.2214 280° West 390 449 14,300 -2,045 Descending Los Angeles Center
Fri 06:40:12 PM 35.7183 -114.2169 128° Southeast 374 430 14,300 -1,619 Level Los Angeles Center
Fri 06:41:14 PM 35.7389 -114.3369 282° West 363 418 12,600 -1,846 Descending Los Angeles Center
Fri 06:41:17 PM 35.7467 -114.3533 300° West 346 398 12,300 -610 Descending Los Angeles Center
Fri 06:42:13 PM 35.8036 -114.4139 319° Northwest 302 348 12,000 -305 Descending Los Angeles Center
Fri 06:42:16 PM 35.7958 -114.4092 154° Southeast 305 351 12,000  Level Los Angeles Center
Fri 06:43:19 PM 35.8775 -114.4456 340° North 308 354 12,000  Level Los Angeles Center
Fri 06:44:15 PM 35.9542 -114.5064 327° Northwest 299 344 12,000  Level Los Angeles Center
Fri 06:44:21 PM 35.9608 -114.5119 326° Northwest 303 349 12,000 -655 Level Los Angeles Center
Fri 06:45:10 PM 36.0144 -114.5633 322° Northwest 297 342 11,400 -774 Descending Los Angeles Center
Fri 06:45:23 PM 36.0283 -114.5722 333° Northwest 301 346 11,200 -1,075 Descending Los Angeles Center
Fri 06:46:17 PM 36.0806 -114.6369 315° West 276 318 10,200 -1,065 Descending Los Angeles Center
Fri 06:46:25 PM 36.0833 -114.6369 360° North 277 319 10,100 -1,377 Descending Los Angeles Center
Fri 06:47:18 PM 36.1258 -114.7150 304° West 280 322 8,800 -1,355 Descending Los Angeles Center
Fri 06:47:27 PM 36.1308 -114.7139 10° North 282 325 8,700 -1,475 Descending Los Angeles Center
Fri 06:48:19 PM 36.1400 -114.7981 278° West 251 289 7,300 -1,452 Descending Los Angeles Center
Fri 06:48:29 PM 36.1394 -114.8019 260° West 266 306 7,200 -393 Descending Los Angeles Center
Fri 06:49:20 PM 36.1481 -114.8942 277° West 252 290 6,900 -484 Descending Los Angeles Center
Fri 06:49:31 PM 36.1478 -114.9083 269° West 265 305 6,700 -1,522 Descending Los Angeles Center
Fri 06:50:27 PM 36.1469 -114.9878 269° West 241 277 5,200 -1,548 Descending Los Angeles Center
Fri 06:50:33 PM 36.1467 -114.9939 267° West 251 289 5,100 -1,279 Descending Los Angeles Center
Fri 06:51:28 PM 36.1469 -115.0569 270° West 196 226 3,900 -1,238 Descending Los Angeles Center
Fri 06:51:36 PM 36.1464 -115.0658 266° West 201 231 3,800 -492 Descending Los Angeles Center
Fri 06:52:29 PM 36.1461 -115.1131 270° West 152 175 3,400 -484 Descending Los Angeles Center
Fri 06:52:38 PM 36.1456 -115.1192 264° West 152 175 3,300 -700 Descending Los Angeles Center
Fri 06:53:29 PM 36.1167 -115.1467 218° Southwest 134 154 2,700 -677 Descending Los Angeles Center
Fri 06:53:40 PM 36.1125 -115.1492 206° Southwest 137 158 2,600 -493 Descending Los Angeles Center
Fri 06:54:42 PM 36.0878 -115.1622 203° Southwest 141 162 2,100 -484 Descending Los Angeles Center
Fri 06:56:00 PM 36.0801 -115.1523 180° South  Level Estimated

Login

Don't have an account? Register now (free) for customized features, flight alerts, and more!